createdAt,value
2022-09-15T00:00:19.499Z,36.64
2022-09-15T00:01:21.303Z,36.70
2022-09-15T00:02:23.059Z,36.63
2022-09-15T00:03:25.008Z,36.67
2022-09-15T00:04:26.571Z,36.72
2022-09-15T00:05:28.134Z,36.83
2022-09-15T00:06:29.704Z,36.73
2022-09-15T00:07:31.475Z,36.64
2022-09-15T00:08:33.013Z,36.67
2022-09-15T00:09:35.785Z,36.69
2022-09-15T00:10:37.371Z,36.75
2022-09-15T00:11:39.301Z,36.75
2022-09-15T00:12:40.897Z,36.77
2022-09-15T00:13:42.438Z,36.86
2022-09-15T00:14:43.983Z,36.74
2022-09-15T00:15:46.267Z,36.94
2022-09-15T00:16:47.862Z,36.82
2022-09-15T00:17:51.931Z,37.01
2022-09-15T00:18:53.534Z,37.07
2022-09-15T00:19:55.302Z,37.00
2022-09-15T00:20:57.014Z,36.82
2022-09-15T00:21:58.672Z,37.07
2022-09-15T00:23:00.165Z,36.99
2022-09-15T00:24:02.475Z,37.06
2022-09-15T00:25:04.808Z,37.07
2022-09-15T00:26:09.077Z,37.18
2022-09-15T00:27:10.608Z,37.15
2022-09-15T00:28:13.078Z,37.01
2022-09-15T00:29:14.712Z,36.95
2022-09-15T00:30:16.363Z,37.16
2022-09-15T00:31:21.481Z,37.31
2022-09-15T00:32:23.073Z,37.29
2022-09-15T00:33:24.851Z,37.24
2022-09-15T00:34:26.359Z,37.32
2022-09-15T00:35:27.864Z,37.27
2022-09-15T00:36:29.818Z,37.29
2022-09-15T00:37:31.571Z,37.28
2022-09-15T00:38:34.891Z,37.29
2022-09-15T00:39:36.597Z,37.29
2022-09-15T00:41:05.349Z,37.31
2022-09-15T00:42:07.128Z,37.34
2022-09-15T00:43:10.822Z,37.25
2022-09-15T00:44:36.821Z,37.44
2022-09-15T00:45:38.541Z,37.38
2022-09-15T00:46:42.717Z,37.39
2022-09-15T00:47:44.570Z,37.46
2022-09-15T00:48:58.650Z,37.44
2022-09-15T00:50:08.399Z,37.37
2022-09-15T00:51:13.020Z,37.29
2022-09-15T00:52:20.615Z,37.42
2022-09-15T00:53:23.757Z,37.45
2022-09-15T00:54:36.845Z,37.59
2022-09-15T00:55:44.263Z,37.35
2022-09-15T00:56:49.246Z,37.46
2022-09-15T00:58:06.865Z,37.37
2022-09-15T00:59:15.045Z,37.48
2022-09-15T01:00:20.478Z,37.45
2022-09-15T01:01:25.786Z,37.66
2022-09-15T01:02:33.077Z,37.66
2022-09-15T01:03:36.820Z,37.62
2022-09-15T01:04:38.397Z,37.79
2022-09-15T01:05:46.203Z,37.64
2022-09-15T01:06:52.436Z,37.64
2022-09-15T01:08:00.646Z,37.78
2022-09-15T01:09:04.729Z,37.60
2022-09-15T01:10:13.055Z,37.50
2022-09-15T01:11:17.078Z,37.66
2022-09-15T01:12:19.374Z,37.63
2022-09-15T01:13:20.932Z,37.68
2022-09-15T01:14:22.584Z,37.71
2022-09-15T01:15:32.056Z,37.85
2022-09-15T01:16:37.026Z,37.80
2022-09-15T01:17:41.622Z,37.80
2022-09-15T01:19:01.305Z,37.81
2022-09-15T01:20:27.063Z,37.66
2022-09-15T01:21:44.916Z,37.57
2022-09-15T01:22:49.054Z,37.59
2022-09-15T01:24:19.068Z,37.62
2022-09-15T01:25:45.096Z,37.63
2022-09-15T01:27:24.438Z,37.58
2022-09-15T01:29:04.486Z,37.73
2022-09-15T01:30:09.020Z,37.65
2022-09-15T01:31:34.964Z,37.64
2022-09-15T01:33:05.832Z,37.65
2022-09-15T01:34:16.135Z,37.49
2022-09-15T01:35:32.763Z,37.66
2022-09-15T01:36:44.222Z,37.56
2022-09-15T01:37:53.511Z,37.67
2022-09-15T01:39:02.327Z,37.60
2022-09-15T01:40:05.302Z,37.57
2022-09-15T01:41:17.210Z,37.66
2022-09-15T01:42:20.011Z,37.63
2022-09-15T01:43:25.249Z,37.53
2022-09-15T01:44:33.213Z,37.53
2022-09-15T01:45:37.621Z,37.38
2022-09-15T01:46:52.315Z,37.61
2022-09-15T01:47:57.859Z,37.34
2022-09-15T01:49:02.147Z,37.06
2022-09-15T01:50:09.663Z,37.16
2022-09-15T01:51:11.611Z,37.05
2022-09-15T01:52:17.219Z,37.18
2022-09-15T01:53:20.969Z,37.10
2022-09-15T01:54:27.612Z,37.18
2022-09-15T01:55:40.877Z,37.07
2022-09-15T01:56:42.838Z,37.19
2022-09-15T01:57:45.524Z,37.24
2022-09-15T01:58:49.761Z,37.31
2022-09-15T01:59:54.512Z,37.17
2022-09-15T02:01:44.869Z,37.14
2022-09-15T02:02:57.759Z,37.12
2022-09-15T02:04:18.309Z,37.14
2022-09-15T02:05:41.430Z,37.24
2022-09-15T02:06:56.025Z,37.31
2022-09-15T02:08:06.661Z,37.15
2022-09-15T02:09:12.830Z,37.41
2022-09-15T02:10:41.167Z,37.16
2022-09-15T02:11:58.793Z,37.13
2022-09-15T02:13:17.069Z,36.95
2022-09-15T02:14:35.300Z,36.86
2022-09-15T02:15:53.882Z,36.97
2022-09-15T02:16:56.096Z,36.74
2022-09-15T02:17:59.186Z,37.04
2022-09-15T02:19:19.738Z,36.85
2022-09-15T02:20:33.351Z,37.08
2022-09-15T02:21:53.676Z,37.48
2022-09-15T02:23:00.811Z,37.64
2022-09-15T02:24:11.030Z,37.50
2022-09-15T02:25:17.645Z,37.21
2022-09-15T02:26:24.532Z,37.32
2022-09-15T02:27:31.757Z,37.21
2022-09-15T02:28:38.811Z,37.04
2022-09-15T02:29:43.675Z,37.01
2022-09-15T02:30:46.762Z,37.08
2022-09-15T02:31:52.590Z,37.09
2022-09-15T02:33:02.774Z,37.25
2022-09-15T02:34:19.646Z,37.06
2022-09-15T02:35:21.815Z,37.12
2022-09-15T02:36:25.368Z,37.01
2022-09-15T02:37:27.682Z,37.00
2022-09-15T02:38:34.875Z,36.95
2022-09-15T02:39:40.023Z,36.91
2022-09-15T02:40:43.789Z,37.03
2022-09-15T02:41:46.147Z,36.93
2022-09-15T02:42:56.747Z,37.26
2022-09-15T02:43:58.284Z,37.03
2022-09-15T02:45:00.933Z,37.44
2022-09-15T02:46:02.663Z,37.31
2022-09-15T02:47:04.370Z,37.36
2022-09-15T02:48:06.853Z,37.38
2022-09-15T02:49:08.389Z,37.19
2022-09-15T02:50:09.902Z,37.09
2022-09-15T02:51:11.722Z,37.08
2022-09-15T02:52:13.447Z,37.21
2022-09-15T02:53:15.047Z,37.06
2022-09-15T02:54:16.710Z,37.07
2022-09-15T02:55:18.304Z,37.37
2022-09-15T02:56:20.110Z,37.22
2022-09-15T02:57:21.695Z,37.23
2022-09-15T02:58:23.811Z,37.11
2022-09-15T02:59:25.416Z,37.04
2022-09-15T03:00:28.486Z,37.03
2022-09-15T03:01:34.950Z,37.16
2022-09-15T03:02:36.951Z,37.26
2022-09-15T03:03:42.782Z,37.20
2022-09-15T03:04:44.592Z,36.97
2022-09-15T03:05:46.159Z,37.20
2022-09-15T03:06:47.755Z,37.35
2022-09-15T03:07:49.585Z,37.44
2022-09-15T03:08:56.311Z,37.23
2022-09-15T03:09:58.436Z,37.28
2022-09-15T03:10:59.954Z,37.17
2022-09-15T03:12:01.617Z,37.19
2022-09-15T03:13:03.639Z,37.25
2022-09-15T03:14:06.774Z,37.39
2022-09-15T03:15:10.456Z,37.54
2022-09-15T03:16:14.282Z,37.38
2022-09-15T03:17:16.461Z,37.44
2022-09-15T03:18:18.003Z,37.45
2022-09-15T03:19:19.543Z,37.49
2022-09-15T03:20:28.162Z,37.49
2022-09-15T03:21:30.652Z,37.39
2022-09-15T03:22:32.392Z,37.39
2022-09-15T03:23:34.242Z,37.55
2022-09-15T03:24:36.210Z,37.50
2022-09-15T03:25:37.728Z,37.30
2022-09-15T03:26:39.284Z,37.51
2022-09-15T03:27:40.837Z,37.40
2022-09-15T03:28:42.438Z,37.57
2022-09-15T03:29:44.105Z,37.53
2022-09-15T03:30:45.775Z,37.60
2022-09-15T03:31:47.426Z,37.40
2022-09-15T03:32:49.109Z,37.50
2022-09-15T03:33:50.717Z,37.51
2022-09-15T03:34:55.264Z,37.67
2022-09-15T03:36:00.003Z,37.70
2022-09-15T03:37:01.735Z,37.76
2022-09-15T03:38:03.269Z,37.76
2022-09-15T03:39:04.870Z,37.88
2022-09-15T03:40:07.186Z,37.67
2022-09-15T03:41:11.469Z,37.63
2022-09-15T03:42:13.036Z,37.76
2022-09-15T03:43:18.640Z,37.93
2022-09-15T03:44:20.370Z,37.69
2022-09-15T03:45:21.894Z,37.75
2022-09-15T03:46:23.506Z,37.96
2022-09-15T03:47:25.306Z,37.99
2022-09-15T03:48:28.460Z,37.88
2022-09-15T03:49:30.266Z,37.75
2022-09-15T03:50:33.203Z,37.98
2022-09-15T03:51:34.718Z,38.04
2022-09-15T03:52:36.315Z,37.96
2022-09-15T03:53:39.763Z,37.88
2022-09-15T03:54:42.104Z,37.96
2022-09-15T03:55:45.412Z,37.89
2022-09-15T03:56:49.011Z,37.93
2022-09-15T03:57:50.575Z,37.88
2022-09-15T03:58:53.367Z,37.84
2022-09-15T03:59:54.928Z,38.21
2022-09-15T04:00:57.050Z,38.29
2022-09-15T04:01:58.745Z,37.95
2022-09-15T04:03:00.341Z,37.97
2022-09-15T04:04:02.092Z,37.98
2022-09-15T04:05:03.826Z,37.81
2022-09-15T04:06:05.588Z,38.16
2022-09-15T04:07:08.825Z,38.05
2022-09-15T04:08:13.084Z,38.02
2022-09-15T04:09:14.726Z,38.26
2022-09-15T04:10:16.653Z,38.02
2022-09-15T04:11:19.818Z,38.07
2022-09-15T04:12:21.461Z,38.04
2022-09-15T04:13:28.456Z,38.07
2022-09-15T04:14:30.414Z,38.06
2022-09-15T04:15:31.966Z,38.04
2022-09-15T04:16:34.051Z,38.04
2022-09-15T04:17:35.701Z,38.01
2022-09-15T04:18:37.272Z,38.12
2022-09-15T04:19:39.278Z,37.82
2022-09-15T04:20:40.927Z,37.99
2022-09-15T04:21:42.544Z,38.02
2022-09-15T04:22:45.087Z,38.04
2022-09-15T04:23:47.778Z,37.80
2022-09-15T04:24:49.790Z,37.91
2022-09-15T04:26:02.773Z,37.96
2022-09-15T04:27:04.500Z,37.94
2022-09-15T04:28:06.379Z,37.87
2022-09-15T04:29:13.722Z,37.62
2022-09-15T04:30:15.232Z,37.61
2022-09-15T04:31:18.058Z,37.61
2022-09-15T04:32:20.814Z,37.32
2022-09-15T04:33:22.662Z,37.52
2022-09-15T04:34:24.663Z,37.55
2022-09-15T04:35:26.303Z,37.52
2022-09-15T04:36:29.315Z,37.70
2022-09-15T04:37:31.832Z,37.54
2022-09-15T04:38:33.824Z,37.61
2022-09-15T04:39:35.365Z,37.44
2022-09-15T04:40:38.193Z,37.42
2022-09-15T04:41:39.800Z,37.40
2022-09-15T04:42:41.338Z,37.35
2022-09-15T04:43:43.413Z,37.15
2022-09-15T04:44:44.959Z,36.74
2022-09-15T04:45:46.500Z,37.08
2022-09-15T04:46:48.817Z,36.82
2022-09-15T04:47:51.650Z,36.86
2022-09-15T04:48:54.006Z,36.56
2022-09-15T04:49:55.610Z,36.34
2022-09-15T04:51:09.007Z,36.52
2022-09-15T04:52:10.733Z,36.25
2022-09-15T04:53:12.412Z,36.38
2022-09-15T04:54:14.105Z,36.61
2022-09-15T04:55:15.641Z,36.37
2022-09-15T04:56:23.229Z,36.34
2022-09-15T04:57:24.808Z,36.04
2022-09-15T04:58:26.359Z,36.07
2022-09-15T04:59:27.894Z,35.82
2022-09-15T05:00:30.522Z,35.95
2022-09-15T05:01:34.749Z,35.76
2022-09-15T05:02:36.382Z,35.59
2022-09-15T05:03:38.436Z,35.84
2022-09-15T05:04:40.072Z,35.48
2022-09-15T05:05:41.833Z,35.38
2022-09-15T05:06:43.394Z,35.53
2022-09-15T05:07:45.699Z,35.65
2022-09-15T05:08:48.692Z,35.56
2022-09-15T05:09:50.248Z,35.62
2022-09-15T05:10:51.810Z,35.49
2022-09-15T05:11:53.366Z,35.64
2022-09-15T05:12:54.876Z,35.46
2022-09-15T05:13:56.828Z,35.37
2022-09-15T05:14:58.377Z,35.21
2022-09-15T05:16:07.338Z,35.05
2022-09-15T05:17:08.931Z,35.08
2022-09-15T05:18:10.433Z,35.13
2022-09-15T05:19:12.164Z,34.91
2022-09-15T05:20:13.678Z,34.96
2022-09-15T05:21:18.461Z,34.83
2022-09-15T05:22:20.322Z,34.84
2022-09-15T05:23:21.858Z,35.00
2022-09-15T05:24:23.547Z,34.82
2022-09-15T05:25:25.136Z,34.42
2022-09-15T05:26:29.276Z,34.77
2022-09-15T05:27:32.746Z,34.86
2022-09-15T05:28:36.241Z,34.93
2022-09-15T05:29:37.785Z,34.67
2022-09-15T05:30:44.104Z,34.42
2022-09-15T05:31:46.101Z,34.31
2022-09-15T05:32:47.648Z,34.14
2022-09-15T05:33:50.552Z,34.80
2022-09-15T05:34:52.167Z,34.68
2022-09-15T05:35:58.193Z,34.32
2022-09-15T05:36:59.722Z,34.22
2022-09-15T05:38:01.227Z,34.19
2022-09-15T05:39:02.813Z,34.39
2022-09-15T05:40:08.355Z,34.29
2022-09-15T05:41:12.249Z,33.99
2022-09-15T05:42:13.762Z,34.24
2022-09-15T05:43:16.037Z,33.97
2022-09-15T05:44:17.805Z,33.51
2022-09-15T05:45:19.351Z,33.53
2022-09-15T05:46:20.989Z,33.99
2022-09-15T05:47:22.893Z,33.96
2022-09-15T05:48:25.101Z,33.63
2022-09-15T05:49:26.634Z,33.67
2022-09-15T05:50:28.192Z,33.64
2022-09-15T05:51:30.287Z,33.47
2022-09-15T05:52:31.871Z,33.48
2022-09-15T05:53:35.099Z,33.20
2022-09-15T05:54:36.632Z,33.38
2022-09-15T05:55:38.339Z,32.98
2022-09-15T05:56:39.849Z,32.67
2022-09-15T05:57:41.359Z,33.30
2022-09-15T05:58:45.640Z,33.17
2022-09-15T05:59:47.167Z,33.54
2022-09-15T06:00:48.843Z,33.08
2022-09-15T06:01:50.400Z,33.26
2022-09-15T06:02:51.986Z,32.75
2022-09-15T06:03:54.645Z,33.04
2022-09-15T06:04:56.206Z,33.58
2022-09-15T06:06:04.862Z,33.33
2022-09-15T06:07:06.695Z,33.28
2022-09-15T06:08:08.260Z,33.24
2022-09-15T06:09:09.769Z,33.25
2022-09-15T06:10:11.324Z,33.65
2022-09-15T06:11:18.462Z,33.25
2022-09-15T06:12:20.093Z,33.66
2022-09-15T06:13:21.627Z,33.98
2022-09-15T06:14:23.226Z,33.67
2022-09-15T06:15:25.044Z,34.07
2022-09-15T06:16:26.842Z,33.75
2022-09-15T06:17:31.334Z,33.71
2022-09-15T06:18:34.827Z,34.02
2022-09-15T06:19:36.477Z,34.34
2022-09-15T06:20:38.277Z,33.95
2022-09-15T06:21:39.887Z,34.05
2022-09-15T06:22:41.717Z,33.82
2022-09-15T06:23:47.281Z,34.21
2022-09-15T06:24:52.924Z,34.42
2022-09-15T06:25:54.486Z,34.42
2022-09-15T06:26:56.052Z,34.37
2022-09-15T06:27:58.064Z,34.86
2022-09-15T06:29:02.076Z,33.85
2022-09-15T06:30:03.808Z,33.93
2022-09-15T06:31:09.731Z,34.21
2022-09-15T06:32:11.376Z,33.93
2022-09-15T06:33:12.938Z,35.11
2022-09-15T06:34:14.567Z,34.74
2022-09-15T06:35:16.142Z,35.18
2022-09-15T06:36:19.175Z,34.57
2022-09-15T06:37:20.785Z,34.82
2022-09-15T06:38:22.405Z,34.72
2022-09-15T06:39:24.060Z,34.74
2022-09-15T06:40:25.941Z,34.67
2022-09-15T06:41:35.332Z,34.72
2022-09-15T06:42:49.031Z,34.77
2022-09-15T06:43:50.884Z,35.06
2022-09-15T06:44:52.893Z,35.52
2022-09-15T06:46:02.358Z,35.25
2022-09-15T06:47:04.362Z,35.43
2022-09-15T06:48:23.447Z,35.58
2022-09-15T06:49:27.395Z,34.84
2022-09-15T06:50:31.025Z,34.99
2022-09-15T06:51:35.413Z,35.24
2022-09-15T06:52:37.211Z,35.28
2022-09-15T06:53:39.902Z,35.23
2022-09-15T06:54:41.419Z,36.18
2022-09-15T06:55:42.961Z,36.59
2022-09-15T06:56:44.939Z,36.11
2022-09-15T06:57:46.502Z,35.84
2022-09-15T06:58:51.463Z,35.77
2022-09-15T06:59:53.001Z,35.72
2022-09-15T07:00:54.547Z,35.54
2022-09-15T07:01:56.246Z,36.31
2022-09-15T07:02:57.887Z,36.28
2022-09-15T07:04:01.308Z,36.38
2022-09-15T07:05:03.502Z,35.59
2022-09-15T07:06:06.158Z,35.25
2022-09-15T07:07:08.041Z,36.04
2022-09-15T07:08:09.599Z,35.89
2022-09-15T07:09:11.555Z,35.81
2022-09-15T07:10:13.095Z,36.13
2022-09-15T07:11:15.123Z,35.70
2022-09-15T07:12:16.662Z,36.02
2022-09-15T07:13:18.277Z,35.63
2022-09-15T07:14:19.871Z,35.78
2022-09-15T07:15:23.345Z,35.81
2022-09-15T07:16:27.971Z,35.87
2022-09-15T07:17:29.635Z,35.57
2022-09-15T07:18:32.024Z,35.76
2022-09-15T07:19:33.625Z,36.03
2022-09-15T07:20:39.026Z,35.85
2022-09-15T07:21:40.558Z,35.65
2022-09-15T07:22:42.069Z,35.49
2022-09-15T07:23:44.087Z,35.54
2022-09-15T07:24:45.667Z,35.73
2022-09-15T07:25:47.213Z,35.49
2022-09-15T07:26:48.741Z,35.76
2022-09-15T07:27:50.248Z,35.50
2022-09-15T07:28:55.594Z,35.67
2022-09-15T07:29:59.057Z,35.03
2022-09-15T07:31:00.759Z,35.68
2022-09-15T07:32:02.457Z,35.80
2022-09-15T07:33:04.155Z,35.52
2022-09-15T07:34:06.438Z,35.49
2022-09-15T07:35:08.490Z,35.64
2022-09-15T07:36:10.436Z,35.39
2022-09-15T07:37:11.930Z,34.60
2022-09-15T07:38:13.465Z,34.69
2022-09-15T07:39:15.021Z,35.07
2022-09-15T07:40:16.891Z,34.68
2022-09-15T07:41:21.115Z,34.28
2022-09-15T07:42:22.628Z,34.38
2022-09-15T07:43:24.344Z,34.57
2022-09-15T07:44:25.876Z,35.38
2022-09-15T07:45:27.449Z,34.96
2022-09-15T07:46:32.998Z,35.14
2022-09-15T07:47:34.607Z,34.99
2022-09-15T07:48:36.151Z,35.00
2022-09-15T07:49:37.711Z,34.65
2022-09-15T07:50:39.276Z,34.57
2022-09-15T07:51:40.864Z,34.80
2022-09-15T07:52:42.384Z,34.54
2022-09-15T07:53:45.890Z,34.47
2022-09-15T07:54:48.332Z,35.43
2022-09-15T07:55:53.693Z,35.14
2022-09-15T07:56:55.234Z,35.29
2022-09-15T07:57:58.494Z,35.13
2022-09-15T07:59:00.235Z,34.58
2022-09-15T08:00:02.278Z,35.40
2022-09-15T08:01:11.217Z,35.16
2022-09-15T08:02:17.299Z,34.97
2022-09-15T08:03:18.981Z,35.30
2022-09-15T08:04:20.512Z,35.23
2022-09-15T08:05:27.067Z,35.57
2022-09-15T08:06:28.928Z,35.19
2022-09-15T08:07:30.702Z,35.56
2022-09-15T08:08:32.308Z,34.81
2022-09-15T08:09:33.840Z,34.85
2022-09-15T08:10:39.291Z,35.04
2022-09-15T08:11:44.637Z,34.91
2022-09-15T08:12:46.156Z,34.63
2022-09-15T08:13:49.680Z,34.83
2022-09-15T08:14:51.266Z,34.28
2022-09-15T08:15:52.892Z,35.49
2022-09-15T08:16:54.448Z,35.54
2022-09-15T08:17:55.954Z,34.60
2022-09-15T08:18:57.714Z,34.43
2022-09-15T08:19:59.232Z,34.97
2022-09-15T08:21:05.672Z,34.25
2022-09-15T08:22:07.271Z,34.22
2022-09-15T08:23:11.252Z,34.48
2022-09-15T08:24:13.113Z,35.18
2022-09-15T08:25:14.917Z,35.05
2022-09-15T08:26:16.466Z,34.82
2022-09-15T08:27:18.046Z,34.40
2022-09-15T08:28:19.663Z,34.17
2022-09-15T08:29:22.024Z,33.96
2022-09-15T08:30:23.710Z,34.34
2022-09-15T08:31:25.436Z,34.80
2022-09-15T08:32:27.021Z,34.43
2022-09-15T08:33:28.945Z,34.18
2022-09-15T08:34:30.990Z,33.87
2022-09-15T08:35:33.895Z,34.30
2022-09-15T08:36:35.599Z,34.88
2022-09-15T08:37:37.155Z,35.10
2022-09-15T08:38:44.348Z,34.34
2022-09-15T08:39:46.682Z,36.13
2022-09-15T08:40:48.818Z,35.66
2022-09-15T08:41:53.592Z,35.97
2022-09-15T08:42:59.963Z,36.51
2022-09-15T08:44:11.300Z,35.56
2022-09-15T08:45:28.906Z,35.49
2022-09-15T08:46:43.124Z,35.13
2022-09-15T08:47:48.176Z,35.47
2022-09-15T08:49:02.741Z,35.38
2022-09-15T08:50:22.976Z,35.67
2022-09-15T08:51:32.236Z,35.19
2022-09-15T08:52:37.941Z,34.86
2022-09-15T08:53:45.761Z,34.77
2022-09-15T08:54:48.808Z,34.12
2022-09-15T08:55:54.329Z,33.65
2022-09-15T08:56:57.452Z,33.73
2022-09-15T08:57:59.133Z,33.75
2022-09-15T08:59:00.684Z,34.14
2022-09-15T09:00:02.498Z,34.05
2022-09-15T09:01:37.923Z,33.89
2022-09-15T09:03:16.854Z,34.12
2022-09-15T09:04:32.832Z,34.33
2022-09-15T09:05:49.779Z,34.14
2022-09-15T09:07:22.321Z,34.10
2022-09-15T09:08:45.508Z,34.77
2022-09-15T09:10:00.237Z,33.95
2022-09-15T09:11:07.755Z,33.69
2022-09-15T09:12:15.288Z,33.98
2022-09-15T09:13:36.732Z,34.29
2022-09-15T09:15:07.353Z,34.05
2022-09-15T09:16:42.762Z,34.01
2022-09-15T09:18:12.094Z,33.76
2022-09-15T09:19:38.207Z,33.89
2022-09-15T09:20:42.624Z,33.33
2022-09-15T09:21:51.851Z,34.15
2022-09-15T09:22:54.334Z,33.79
2022-09-15T09:24:01.850Z,33.91
2022-09-15T09:25:21.251Z,33.71
2022-09-15T09:26:30.325Z,33.67
2022-09-15T09:27:35.119Z,34.09
2022-09-15T09:28:46.438Z,33.76
2022-09-15T09:30:01.626Z,33.60
2022-09-15T09:31:07.935Z,34.04
2022-09-15T09:32:32.426Z,34.00
2022-09-15T09:33:56.035Z,34.01
2022-09-15T09:35:06.397Z,33.66
2022-09-15T09:36:11.014Z,34.27
2022-09-15T09:37:15.555Z,34.18
2022-09-15T09:38:26.237Z,33.81
2022-09-15T09:39:28.596Z,34.11
2022-09-15T09:40:32.781Z,33.89
2022-09-15T09:41:37.560Z,33.80
2022-09-15T09:42:39.353Z,33.76
2022-09-15T09:43:44.085Z,33.95
2022-09-15T09:44:47.123Z,34.23
2022-09-15T09:45:48.783Z,33.56
2022-09-15T09:46:50.436Z,33.76
2022-09-15T09:47:53.026Z,33.76
2022-09-15T09:49:16.933Z,33.79
2022-09-15T09:50:39.189Z,33.06
2022-09-15T09:52:03.292Z,33.30
2022-09-15T09:53:23.644Z,32.82
2022-09-15T09:54:29.298Z,32.78
2022-09-15T09:55:31.020Z,32.73
2022-09-15T09:56:33.474Z,32.98
2022-09-15T09:57:40.005Z,32.96
2022-09-15T09:58:42.695Z,32.75
2022-09-15T09:59:49.479Z,33.45
2022-09-15T10:00:52.792Z,33.66
2022-09-15T10:02:15.912Z,33.04
2022-09-15T10:03:28.152Z,33.02
2022-09-15T10:04:33.719Z,33.38
2022-09-15T10:05:35.390Z,33.03
2022-09-15T10:06:37.035Z,32.79
2022-09-15T10:07:45.827Z,32.86
2022-09-15T10:09:08.575Z,32.75
2022-09-15T10:10:21.464Z,33.24
2022-09-15T10:11:39.945Z,33.80
2022-09-15T10:12:42.020Z,33.54
2022-09-15T10:13:55.712Z,32.90
2022-09-15T10:15:00.898Z,33.01
2022-09-15T10:16:05.757Z,32.96
2022-09-15T10:17:13.916Z,32.92
2022-09-15T10:18:26.788Z,33.13
2022-09-15T10:19:32.383Z,33.29
2022-09-15T10:20:51.412Z,34.08
2022-09-15T10:21:53.464Z,33.71
2022-09-15T10:23:31.805Z,33.91
2022-09-15T10:24:38.495Z,33.63
2022-09-15T10:25:57.983Z,33.68
2022-09-15T10:27:31.994Z,34.43
2022-09-15T10:28:33.596Z,34.12
2022-09-15T10:29:39.757Z,34.26
2022-09-15T10:30:57.584Z,34.06
2022-09-15T10:32:16.515Z,34.10
2022-09-15T10:33:25.268Z,34.30
2022-09-15T10:34:30.619Z,34.13
2022-09-15T10:35:33.166Z,34.42
2022-09-15T10:36:34.767Z,34.01
2022-09-15T10:37:54.616Z,33.95
2022-09-15T10:39:14.850Z,34.15
2022-09-15T10:40:55.760Z,34.23
2022-09-15T10:42:19.480Z,34.12
2022-09-15T10:43:42.266Z,34.21
2022-09-15T10:45:33.820Z,34.47
2022-09-15T10:47:04.706Z,34.20
2022-09-15T10:48:22.258Z,33.82
2022-09-15T10:49:48.518Z,34.50
2022-09-15T10:51:03.985Z,34.41
2022-09-15T10:52:11.976Z,34.13
2022-09-15T10:53:20.251Z,34.33
2022-09-15T10:54:41.246Z,33.93
2022-09-15T10:56:01.211Z,34.13
2022-09-15T10:57:41.524Z,33.89
2022-09-15T10:58:45.637Z,33.79
2022-09-15T11:00:10.882Z,34.23
2022-09-15T11:01:54.119Z,34.52
2022-09-15T11:02:55.649Z,34.06
2022-09-15T11:04:00.327Z,33.82
2022-09-15T11:05:34.412Z,34.00
2022-09-15T11:07:14.014Z,33.49
2022-09-15T11:08:41.781Z,34.00
2022-09-15T11:09:53.021Z,33.74
2022-09-15T11:11:00.483Z,33.06
2022-09-15T11:12:04.839Z,33.32
2022-09-15T11:13:17.496Z,33.61
2022-09-15T11:14:50.473Z,33.37
2022-09-15T11:16:12.254Z,33.46
2022-09-15T11:17:47.424Z,33.33
2022-09-15T11:19:10.098Z,33.59
2022-09-15T11:20:25.319Z,33.44
2022-09-15T11:21:34.460Z,33.57
2022-09-15T11:22:49.469Z,32.84
2022-09-15T11:24:22.072Z,33.73
2022-09-15T11:25:28.273Z,33.42
2022-09-15T11:26:35.404Z,33.05
2022-09-15T11:27:42.593Z,32.83
2022-09-15T11:28:48.647Z,32.83
2022-09-15T11:30:21.719Z,32.96
2022-09-15T11:31:30.711Z,32.40
2022-09-15T11:32:48.416Z,32.86
2022-09-15T11:33:58.613Z,32.76
2022-09-15T11:35:39.040Z,32.39
2022-09-15T11:36:53.013Z,32.93
2022-09-15T11:38:00.548Z,32.59
2022-09-15T11:39:19.535Z,32.72
2022-09-15T11:40:28.703Z,32.73
2022-09-15T11:41:43.991Z,32.58
2022-09-15T11:43:17.679Z,32.56
2022-09-15T11:44:32.488Z,32.16
2022-09-15T11:45:40.692Z,32.38
2022-09-15T11:47:07.593Z,32.70
2022-09-15T11:48:21.699Z,32.77
2022-09-15T11:49:37.034Z,32.19
2022-09-15T11:50:45.228Z,32.38
2022-09-15T11:51:57.115Z,32.40
2022-09-15T11:53:16.759Z,32.54
2022-09-15T11:54:34.819Z,31.79
2022-09-15T11:56:07.292Z,31.90
2022-09-15T11:57:23.392Z,32.06
2022-09-15T11:58:46.426Z,31.56
2022-09-15T11:59:57.771Z,31.38
2022-09-15T12:01:14.146Z,31.43
2022-09-15T12:02:30.707Z,32.02
2022-09-15T12:03:42.329Z,32.90
2022-09-15T12:04:58.660Z,32.49
2022-09-15T12:06:07.133Z,31.85
2022-09-15T12:07:23.902Z,32.24
2022-09-15T12:08:43.468Z,31.59
2022-09-15T12:09:45.548Z,32.09
2022-09-15T12:10:52.427Z,32.75
2022-09-15T12:12:01.862Z,31.84
2022-09-15T12:13:04.876Z,32.55
2022-09-15T12:14:12.225Z,32.40
2022-09-15T12:15:17.497Z,32.79
2022-09-15T12:16:20.903Z,32.55
2022-09-15T12:17:41.039Z,32.86
2022-09-15T12:18:56.757Z,31.27
2022-09-15T12:20:17.214Z,32.08
2022-09-15T12:21:39.346Z,31.50
2022-09-15T12:22:54.951Z,31.30
2022-09-15T12:24:03.692Z,31.76
2022-09-15T12:25:16.931Z,31.36
2022-09-15T12:26:23.710Z,31.83
2022-09-15T12:27:25.260Z,31.11
2022-09-15T12:28:38.712Z,30.96
2022-09-15T12:29:54.718Z,30.49
2022-09-15T12:31:13.212Z,31.16
2022-09-15T12:32:24.661Z,31.09
2022-09-15T12:33:46.022Z,31.17
2022-09-15T12:35:16.436Z,31.50
2022-09-15T12:36:44.682Z,30.87
2022-09-15T12:37:53.283Z,31.51
2022-09-15T12:38:54.961Z,31.35
2022-09-15T12:39:56.735Z,30.73
2022-09-15T12:40:59.594Z,31.36
2022-09-15T12:42:01.077Z,31.39
2022-09-15T12:43:23.579Z,31.22
2022-09-15T12:44:34.163Z,30.97
2022-09-15T12:45:36.270Z,31.38
2022-09-15T12:46:38.083Z,31.96
2022-09-15T12:47:49.961Z,32.02
2022-09-15T12:48:54.040Z,31.00
2022-09-15T12:50:01.664Z,31.07
2022-09-15T12:51:05.850Z,31.48
2022-09-15T12:52:09.958Z,31.85
2022-09-15T12:53:22.161Z,30.91
2022-09-15T12:54:28.916Z,31.85
2022-09-15T12:55:35.983Z,31.21
2022-09-15T12:56:37.831Z,31.17
2022-09-15T12:57:39.424Z,31.08
2022-09-15T12:58:46.095Z,31.88
2022-09-15T12:59:47.729Z,31.70
2022-09-15T13:01:16.706Z,32.18
2022-09-15T13:02:44.623Z,32.04
2022-09-15T13:03:46.291Z,31.31
2022-09-15T13:04:58.064Z,31.06
2022-09-15T13:06:19.877Z,31.46
2022-09-15T13:07:33.294Z,31.24
2022-09-15T13:08:36.151Z,31.73
2022-09-15T13:09:46.288Z,31.82
2022-09-15T13:11:38.367Z,31.97
2022-09-15T13:12:48.461Z,31.78
2022-09-15T13:13:51.829Z,31.96
2022-09-15T13:14:56.796Z,31.82
2022-09-15T13:16:01.141Z,31.92
2022-09-15T13:17:13.228Z,32.12
2022-09-15T13:18:17.180Z,32.07
2022-09-15T13:19:35.974Z,31.70
2022-09-15T13:20:41.256Z,32.16
2022-09-15T13:21:51.481Z,31.94
2022-09-15T13:22:56.381Z,31.85
2022-09-15T13:23:58.250Z,31.57
2022-09-15T13:25:16.739Z,31.74
2022-09-15T13:26:24.082Z,31.68
2022-09-15T13:27:36.363Z,31.55
2022-09-15T13:28:38.803Z,31.86
2022-09-15T13:29:54.840Z,30.87
2022-09-15T13:31:02.978Z,31.30
2022-09-15T13:32:15.404Z,31.33
2022-09-15T13:35:38.899Z,31.88
2022-09-15T13:38:39.913Z,31.34
2022-09-15T13:40:21.483Z,34.01
2022-09-15T13:41:33.214Z,34.69
2022-09-15T13:43:13.460Z,32.88
2022-09-15T13:44:33.232Z,33.63
2022-09-15T13:45:53.850Z,35.43
2022-09-15T13:46:58.320Z,34.30
2022-09-15T13:48:11.006Z,34.59
2022-09-15T13:49:24.474Z,35.06
2022-09-15T13:50:40.448Z,34.24
2022-09-15T13:51:48.359Z,34.39
2022-09-15T13:53:00.657Z,34.22
2022-09-15T13:54:08.277Z,34.72
2022-09-15T13:55:27.725Z,33.79
2022-09-15T13:56:32.812Z,34.89
2022-09-15T13:59:14.239Z,34.02
2022-09-15T14:00:23.271Z,33.79
2022-09-15T14:01:25.831Z,34.11
2022-09-15T14:02:27.555Z,34.48
2022-09-15T14:03:50.466Z,33.81
2022-09-15T14:04:52.105Z,35.00
2022-09-15T14:05:55.535Z,34.27
2022-09-15T14:07:01.360Z,34.32
2022-09-15T14:08:32.438Z,34.13
2022-09-15T14:09:44.662Z,33.00
2022-09-15T14:10:53.885Z,33.41
2022-09-15T14:12:02.553Z,33.38
2022-09-15T14:13:04.233Z,34.28
2022-09-15T14:14:11.545Z,34.07
2022-09-15T14:15:18.052Z,33.96
2022-09-15T14:16:29.388Z,33.81
2022-09-15T14:17:31.971Z,33.65
2022-09-15T14:18:43.006Z,33.80
2022-09-15T14:19:44.575Z,32.64
2022-09-15T14:20:59.055Z,33.79
2022-09-15T14:22:03.146Z,33.23
2022-09-15T14:23:16.164Z,33.00
2022-09-15T14:24:21.666Z,31.84
2022-09-15T14:25:24.191Z,31.57
2022-09-15T14:26:28.982Z,31.24
2022-09-15T14:27:35.239Z,31.26
2022-09-15T14:28:36.828Z,30.53
2022-09-15T14:29:42.823Z,31.20
2022-09-15T14:30:47.820Z,30.17
2022-09-15T14:31:49.493Z,30.45
2022-09-15T14:32:54.330Z,30.11
2022-09-15T14:33:56.373Z,30.46